Time;durP1;ratioP1;P1;durP2;ratioP2;P2;SDS_P1;SDS_P2;PMS_P1;PMS_P2;Temp;Humidity;BMP_temperature;BMP_pressure;BME280_temperature;BME280_humidity;BME280_pressure;Samples;Min_cycle;Max_cycle;Signal;HPM_P1;HPM_P2
2023/09/04 00:00:28;;;;;;;3.20;3.00;;;;;;;16.85;82.24;96609.50;4992893;28;20294;-81
2023/09/04 00:02:53;;;;;;;3.90;3.45;;;;;;;16.80;82.27;96611.81;4980698;28;20184;-82
2023/09/04 00:05:18;;;;;;;3.83;3.53;;;;;;;16.79;82.46;96607.56;4985340;28;20192;-82
2023/09/04 00:07:44;;;;;;;3.67;3.38;;;;;;;16.73;82.92;96608.19;4986507;28;20644;-82
2023/09/04 00:10:10;;;;;;;4.15;3.75;;;;;;;16.70;82.78;96606.72;4976146;28;20629;-82
2023/09/04 00:12:36;;;;;;;4.70;3.60;;;;;;;16.74;83.42;96601.97;4980569;28;20239;-83
2023/09/04 00:15:01;;;;;;;3.60;3.30;;;;;;;16.75;83.07;96606.22;4986983;28;20215;-83
2023/09/04 00:17:26;;;;;;;5.38;3.40;;;;;;;16.70;83.88;96598.84;4995361;28;20215;-82
2023/09/04 00:19:52;;;;;;;3.70;3.40;;;;;;;16.76;83.59;96605.22;4977251;28;20370;-82
2023/09/04 00:22:17;;;;;;;3.72;3.42;;;;;;;16.80;83.97;96596.06;4974754;28;20597;-82
2023/09/04 00:24:42;;;;;;;4.05;3.65;;;;;;;16.85;84.09;96599.84;4988964;28;20219;-82
2023/09/04 00:27:08;;;;;;;3.70;3.30;;;;;;;16.84;83.82;96594.75;4983075;28;20271;-83
2023/09/04 00:29:33;;;;;;;3.90;3.60;;;;;;;16.76;84.36;96597.38;4983032;28;20296;-82
2023/09/04 00:31:58;;;;;;;4.05;3.70;;;;;;;16.77;84.15;96601.63;4987078;28;20716;-83
2023/09/04 00:34:24;;;;;;;4.03;3.70;;;;;;;16.67;84.52;96596.50;4992428;28;20187;-82
2023/09/04 00:36:49;;;;;;;3.83;3.42;;;;;;;16.70;84.49;96596.22;4962950;28;20219;-82
2023/09/04 00:39:14;;;;;;;4.03;3.63;;;;;;;16.65;84.40;96590.59;4977640;28;20231;-83
2023/09/04 00:41:40;;;;;;;3.90;3.60;;;;;;;16.62;84.78;96593.53;4984090;28;20675;-83
2023/09/04 00:44:06;;;;;;;4.32;3.92;;;;;;;16.65;84.17;96590.59;4971998;28;20188;-82
2023/09/04 00:46:31;;;;;;;5.05;3.97;;;;;;;16.65;85.11;96588.78;4968921;28;20187;-83
2023/09/04 00:48:57;;;;;;;3.72;3.45;;;;;;;16.69;84.91;96586.69;4984116;28;20251;-82
2023/09/04 00:51:22;;;;;;;4.13;3.80;;;;;;;16.68;84.92;96585.88;4980797;28;20206;-82
2023/09/04 00:53:48;;;;;;;6.47;4.10;;;;;;;16.68;85.08;96579.78;4977867;28;20192;-83
2023/09/04 00:56:14;;;;;;;4.40;4.00;;;;;;;16.62;84.87;96575.19;4975742;28;20212;-83
2023/09/04 00:58:39;;;;;;;4.10;3.67;;;;;;;16.64;85.01;96576.66;4961033;28;20216;-82
2023/09/04 01:01:05;;;;;;;4.25;3.85;;;;;;;16.62;85.25;96578.63;4979883;28;20224;-83
2023/09/04 01:03:31;;;;;;;4.35;3.67;;;;;;;16.59;85.25;96584.16;4991795;28;20184;-83
2023/09/04 01:05:56;;;;;;;7.45;4.18;;;;;;;16.60;85.39;96588.44;4976387;28;20254;-83
2023/09/04 01:08:22;;;;;;;5.50;3.88;;;;;;;16.55;85.03;96588.09;4971194;28;20190;-82
2023/09/04 01:11:17;;;;;;;4.45;4.05;;;;;;;16.52;85.67;96583.19;4990396;28;20201;-82
2023/09/04 01:13:49;;;;;;;3.92;3.63;;;;;;;16.59;85.45;96578.94;4991675;28;20216;-82
2023/09/04 01:16:17;;;;;;;6.00;3.78;;;;;;;16.46;85.84;96583.00;4991635;28;20282;-82
2023/09/04 01:18:42;;;;;;;6.63;4.53;;;;;;;16.48;86.12;96584.47;4988858;28;20196;-82
2023/09/04 01:21:08;;;;;;;5.47;4.00;;;;;;;16.47;86.40;96582.84;4972888;28;20192;-82
2023/09/04 01:23:33;;;;;;;4.30;3.75;;;;;;;16.47;86.32;96589.88;4986526;28;20640;-82
2023/09/04 01:26:04;;;;;;;4.47;3.95;;;;;;;16.45;86.56;96587.41;4983259;28;20619;-83
2023/09/04 01:28:48;;;;;;;6.57;4.22;;;;;;;16.47;86.30;96582.84;4989997;28;20194;-83
2023/09/04 01:31:21;;;;;;;5.05;4.55;;;;;;;16.48;86.82;96587.09;4974291;28;20195;-83
2023/09/04 01:33:50;;;;;;;4.80;4.32;;;;;;;16.48;86.59;96583.66;4961389;28;20748;-83
2023/09/04 01:36:16;;;;;;;4.88;4.43;;;;;;;16.39;87.03;96572.31;4976300;28;20219;-82
2023/09/04 01:38:44;;;;;;;4.38;3.97;;;;;;;16.40;87.15;96574.78;4964940;28;20220;-83
2023/09/04 01:41:10;;;;;;;5.25;4.80;;;;;;;16.39;86.93;96574.94;4965191;28;20220;-83
2023/09/04 01:43:35;;;;;;;5.18;4.55;;;;;;;16.41;87.05;96572.97;4986416;28;20191;-82
2023/09/04 01:46:01;;;;;;;4.50;4.10;;;;;;;16.43;86.79;96568.38;4985325;28;20220;-83
2023/09/04 01:48:26;;;;;;;5.90;4.70;;;;;;;16.39;86.37;96575.75;4988404;28;20212;-82
2023/09/04 01:50:53;;;;;;;6.30;4.63;;;;;;;16.31;86.36;96574.91;4974324;28;20737;-82
2023/09/04 01:53:19;;;;;;;6.38;4.32;;;;;;;16.28;86.69;96575.22;4992789;28;20194;-83
2023/09/04 01:55:44;;;;;;;4.85;4.45;;;;;;;16.25;86.82;96570.28;4975874;28;20191;-84
2023/09/04 01:58:10;;;;;;;4.60;4.20;;;;;;;16.23;86.89;96565.22;4976621;28;20191;-83
2023/09/04 02:00:35;;;;;;;4.88;4.25;;;;;;;16.21;87.00;96561.94;4975657;28;20311;-82
2023/09/04 02:03:00;;;;;;;4.60;3.88;;;;;;;16.18;86.59;96561.44;4983066;28;20749;-83
2023/09/04 02:05:26;;;;;;;5.07;4.45;;;;;;;16.11;87.40;96559.44;4985398;28;20184;-82
2023/09/04 02:07:51;;;;;;;5.40;4.63;;;;;;;16.11;87.57;96554.19;4965011;28;20184;-82
2023/09/04 02:10:16;;;;;;;5.03;4.35;;;;;;;16.15;87.62;96552.06;4990803;28;20224;-84
2023/09/04 02:12:42;;;;;;;4.35;3.95;;;;;;;16.14;87.21;96556.50;4975183;28;20184;-83
2023/09/04 02:15:07;;;;;;;5.13;4.63;;;;;;;16.13;87.51;96561.91;4989165;28;20185;-83
2023/09/04 02:17:33;;;;;;;7.25;5.40;;;;;;;16.23;87.11;96564.38;4968488;28;20224;-84
2023/09/04 02:19:59;;;;;;;5.13;4.65;;;;;;;16.21;87.22;96561.09;4967379;28;20227;-82
2023/09/04 02:22:24;;;;;;;5.90;4.78;;;;;;;16.17;87.13;96565.00;4982622;28;20195;-83
2023/09/04 02:24:50;;;;;;;5.75;4.72;;;;;;;16.24;86.73;96564.22;4975986;28;20242;-82
2023/09/04 02:27:15;;;;;;;4.95;4.45;;;;;;;16.29;87.21;96566.38;4985434;28;20219;-82
2023/09/04 02:29:40;;;;;;;7.18;5.30;;;;;;;16.27;87.07;96569.16;4976783;28;20298;-83
2023/09/04 02:32:06;;;;;;;5.13;4.53;;;;;;;16.29;87.53;96558.53;4985655;28;20295;-82
2023/09/04 02:34:31;;;;;;;7.68;5.35;;;;;;;16.28;87.08;96555.09;4990918;28;20183;-82
2023/09/04 02:36:58;;;;;;;6.30;4.78;;;;;;;16.26;87.37;96556.22;4975435;28;20200;-82
2023/09/04 02:39:23;;;;;;;6.20;4.88;;;;;;;16.30;87.10;96547.88;4965136;28;20220;-82
2023/09/04 02:41:49;;;;;;;4.97;4.47;;;;;;;16.29;87.40;96545.41;4984178;28;20222;-83
2023/09/04 02:44:14;;;;;;;6.75;4.82;;;;;;;16.27;87.00;96542.97;4965020;28;20247;-82
2023/09/04 02:46:39;;;;;;;5.43;4.82;;;;;;;16.23;86.97;96552.09;4994910;28;20243;-83
2023/09/04 02:49:05;;;;;;;5.97;4.78;;;;;;;16.19;86.57;96544.72;4976689;28;20263;-83
2023/09/04 02:51:30;;;;;;;5.72;4.93;;;;;;;16.21;87.17;96542.75;4974590;28;20264;-82
2023/09/04 02:53:55;;;;;;;4.88;4.47;;;;;;;16.16;86.92;96540.59;4975777;28;20275;-82
2023/09/04 02:56:21;;;;;;;5.25;4.75;;;;;;;16.12;87.14;96547.16;4977469;28;20231;-83
2023/09/04 02:58:46;;;;;;;5.45;4.95;;;;;;;16.12;87.17;96540.09;4986019;28;20295;-82
2023/09/04 03:01:14;;;;;;;6.00;4.97;;;;;;;16.06;87.74;96545.97;4966609;28;20188;-84
2023/09/04 03:03:39;;;;;;;5.95;5.13;;;;;;;16.07;87.58;96547.59;4963331;28;20188;-82
2023/09/04 03:06:09;;;;;;;5.03;4.63;;;;;;;16.10;86.23;96549.13;4976023;28;20915;-82
2023/09/04 03:08:34;;;;;;;6.20;5.25;;;;;;;16.09;86.75;96550.09;4976496;28;20546;-81
2023/09/04 03:10:59;;;;;;;5.60;5.00;;;;;;;16.05;86.67;96549.56;4989526;28;20195;-82
2023/09/04 03:13:24;;;;;;;5.32;4.82;;;;;;;16.04;87.03;96547.94;4988064;28;20192;-81
2023/09/04 03:15:50;;;;;;;5.28;4.78;;;;;;;15.99;87.13;96552.84;4971974;28;20207;-83
2023/09/04 03:18:15;;;;;;;5.55;4.88;;;;;;;15.91;87.23;96550.19;4985852;28;20282;-82
2023/09/04 03:20:40;;;;;;;5.97;4.90;;;;;;;15.84;87.90;96554.41;4982032;28;20286;-83
2023/09/04 03:23:07;;;;;;;5.63;5.03;;;;;;;15.84;87.47;96541.28;4980367;28;20255;-82
2023/09/04 03:25:33;;;;;;;4.45;4.05;;;;;;;15.81;87.83;96544.22;4978765;28;20214;-83
2023/09/04 03:27:58;;;;;;;6.63;5.30;;;;;;;15.86;87.07;96545.41;4979665;28;20255;-83
2023/09/04 03:30:23;;;;;;;5.40;4.53;;;;;;;15.89;86.76;96551.28;4977392;28;20204;-82
2023/09/04 03:32:49;;;;;;;4.88;4.22;;;;;;;15.88;86.26;96550.47;4979470;28;20189;-82
2023/09/04 03:35:16;;;;;;;6.55;5.03;;;;;;;15.89;86.14;96552.09;4981852;28;20188;-81
2023/09/04 03:37:42;;;;;;;5.68;5.13;;;;;;;15.89;86.34;96554.72;4983912;28;20208;-81
2023/09/04 03:40:21;;;;;;;5.15;4.65;;;;;;;15.86;87.09;96555.88;4970210;28;20794;-82
2023/09/04 03:42:46;;;;;;;5.22;4.72;;;;;;;15.79;87.41;96557.47;4995368;28;20665;-82
2023/09/04 03:45:12;;;;;;;5.40;4.90;;;;;;;15.71;87.80;96554.78;4986096;28;20215;-82
2023/09/04 03:47:38;;;;;;;5.47;4.82;;;;;;;15.68;88.35;96551.69;4994197;28;20211;-82
2023/09/04 03:50:04;;;;;;;5.20;4.70;;;;;;;15.71;87.49;96552.19;4969536;28;20241;-82
2023/09/04 03:52:33;;;;;;;7.00;4.90;;;;;;;15.67;87.40;96558.72;4987754;28;20250;-82
2023/09/04 03:54:58;;;;;;;6.70;5.00;;;;;;;15.67;87.77;96555.28;4992004;28;20194;-82
2023/09/04 03:57:25;;;;;;;5.57;4.75;;;;;;;15.65;87.53;96557.22;4985334;28;20726;-82
2023/09/04 03:59:53;;;;;;;6.60;4.80;;;;;;;15.66;87.75;96551.84;4986898;28;20220;-82
2023/09/04 04:02:18;;;;;;;5.40;4.90;;;;;;;15.67;87.94;96560.50;4989496;28;20713;-81
2023/09/04 04:04:44;;;;;;;13.05;5.05;;;;;;;15.74;86.51;96561.53;4981878;28;20196;-82
2023/09/04 04:07:09;;;;;;;5.45;4.75;;;;;;;15.81;85.96;96565.16;4978680;28;20191;-82
2023/09/04 04:09:34;;;;;;;5.85;4.93;;;;;;;15.76;85.46;96563.03;4977091;28;20204;-82
2023/09/04 04:12:00;;;;;;;4.85;4.45;;;;;;;15.85;85.07;96569.13;4979777;28;20189;-82
2023/09/04 04:14:25;;;;;;;5.30;4.80;;;;;;;15.77;85.10;96566.47;4981543;28;20282;-82
2023/09/04 04:16:51;;;;;;;5.05;4.63;;;;;;;15.71;85.28;96565.25;4987330;28;20200;-82
2023/09/04 04:19:16;;;;;;;5.85;4.72;;;;;;;15.75;85.14;96563.19;4985110;28;20231;-83
2023/09/04 04:21:41;;;;;;;6.35;5.20;;;;;;;15.75;84.76;96573.66;4983920;28;20200;-84
2023/09/04 04:24:07;;;;;;;5.68;5.13;;;;;;;15.80;84.82;96566.13;4975979;28;20191;-82
2023/09/04 04:26:32;;;;;;;5.65;4.75;;;;;;;15.76;84.73;96572.69;4962042;28;20188;-82
2023/09/04 04:28:57;;;;;;;5.90;4.30;;;;;;;15.78;85.00;96578.56;4976713;28;20219;-82
2023/09/04 04:31:23;;;;;;;6.22;4.63;;;;;;;15.79;84.78;96572.34;4979137;28;20181;-82
2023/09/04 04:33:48;;;;;;;6.05;5.38;;;;;;;15.75;85.11;96568.41;4981717;28;20558;-83
2023/09/04 04:36:13;;;;;;;5.45;4.95;;;;;;;15.75;85.77;96576.28;4982962;28;20200;-83
2023/09/04 04:38:39;;;;;;;5.32;4.82;;;;;;;15.68;85.78;96562.97;4984043;28;20224;-83
2023/09/04 04:41:04;;;;;;;5.70;4.53;;;;;;;15.71;85.48;96564.44;4982276;28;20187;-82
2023/09/04 04:43:30;;;;;;;5.97;5.20;;;;;;;15.53;86.57;96564.47;4992336;28;20200;-83
2023/09/04 04:45:55;;;;;;;6.60;5.00;;;;;;;15.59;86.34;96569.91;4977855;28;20599;-82
2023/09/04 04:48:21;;;;;;;5.95;5.25;;;;;;;15.56;87.14;96570.25;4976272;28;20197;-83
2023/09/04 04:50:46;;;;;;;5.13;4.63;;;;;;;15.57;86.66;96569.25;4979411;28;20194;-81
2023/09/04 04:53:11;;;;;;;5.60;5.10;;;;;;;15.59;86.44;96569.91;4987228;28;20543;-84
2023/09/04 04:55:36;;;;;;;6.97;5.00;;;;;;;15.73;86.40;96570.38;4971921;28;20188;-84
2023/09/04 04:58:02;;;;;;;5.45;4.95;;;;;;;15.67;86.12;96570.97;4984000;28;20212;-85
2023/09/04 05:00:27;;;;;;;6.15;5.10;;;;;;;15.82;85.28;96578.13;4986206;28;20694;-85
2023/09/04 05:02:53;;;;;;;5.57;5.07;;;;;;;15.85;85.33;96564.72;4978771;28;20204;-83
2023/09/04 05:05:18;;;;;;;5.30;4.60;;;;;;;15.92;84.75;96572.78;4987086;28;20188;-83
2023/09/04 05:07:43;;;;;;;5.50;4.88;;;;;;;15.80;84.87;96571.38;4988140;28;20193;-83
2023/09/04 05:10:09;;;;;;;6.10;4.78;;;;;;;15.86;84.74;96565.53;4988181;28;20211;-83
2023/09/04 05:12:35;;;;;;;5.50;4.97;;;;;;;15.98;84.21;96569.50;4988117;28;20656;-83
2023/09/04 05:15:01;;;;;;;5.60;4.65;;;;;;;16.02;83.38;96560.38;4983190;28;20215;-83
2023/09/04 05:17:26;;;;;;;6.03;4.90;;;;;;;15.99;84.40;96559.84;4997553;28;20293;-85
2023/09/04 05:19:51;;;;;;;8.75;5.10;;;;;;;15.94;84.75;96555.09;4987802;28;20226;-83
2023/09/04 05:22:17;;;;;;;5.68;5.15;;;;;;;15.98;84.34;96556.41;4996734;28;20655;-83
2023/09/04 05:24:43;;;;;;;5.57;5.07;;;;;;;16.10;83.88;96549.13;4982320;28;20191;-83
2023/09/04 05:27:08;;;;;;;5.72;5.22;;;;;;;16.20;83.20;96547.19;4991248;28;20191;-80
2023/09/04 05:29:33;;;;;;;5.25;4.75;;;;;;;16.26;82.97;96548.38;5000297;28;20229;-82
2023/09/04 05:31:59;;;;;;;5.85;4.50;;;;;;;16.23;82.96;96546.88;4991199;28;20192;-80
2023/09/04 05:34:25;;;;;;;6.45;4.72;;;;;;;16.21;83.63;96542.75;4970846;28;20196;-81
2023/09/04 05:36:50;;;;;;;5.30;4.80;;;;;;;16.29;82.70;96538.38;4981671;28;20204;-82
2023/09/04 05:39:15;;;;;;;5.63;5.03;;;;;;;16.33;82.18;96541.47;4985989;28;20777;-81
2023/09/04 05:41:41;;;;;;;5.82;5.10;;;;;;;16.28;82.34;96546.41;4973501;28;20669;-81
2023/09/04 05:44:06;;;;;;;5.00;4.47;;;;;;;16.35;82.25;96540.38;4983496;28;20793;-81
2023/09/04 05:46:31;;;;;;;6.75;5.15;;;;;;;16.36;82.72;96539.38;4974655;28;20219;-82
2023/09/04 05:49:29;;;;;;;5.00;4.30;;;;;;;16.49;82.27;96535.47;4991465;28;20307;-82
2023/09/04 05:51:54;;;;;;;5.07;4.22;;;;;;;16.43;82.89;96535.16;4947493;28;20827;-79
2023/09/04 05:54:20;;;;;;;5.78;5.28;;;;;;;16.57;82.55;96538.94;4967842;28;20189;-80
2023/09/04 05:56:45;;;;;;;7.70;5.10;;;;;;;16.73;81.81;96538.19;4965513;28;20240;-80
2023/09/04 05:59:17;;;;;;;5.38;4.55;;;;;;;16.72;81.18;96536.56;4966489;28;20733;-82
2023/09/04 06:01:42;;;;;;;5.90;4.28;;;;;;;16.70;81.75;96539.34;4952363;28;20351;-81
2023/09/04 06:04:11;;;;;;;5.05;4.60;;;;;;;16.86;81.20;96538.53;4961636;28;20204;-83
2023/09/04 06:06:38;;;;;;;4.80;4.35;;;;;;;16.80;81.89;96543.63;4966598;28;20192;-87
2023/09/04 06:09:04;;;;;;;4.90;4.50;;;;;;;16.82;81.15;96544.25;4938426;28;20217;-83
2023/09/04 06:11:29;;;;;;;8.25;5.05;;;;;;;16.83;80.70;96549.34;4955932;28;20196;-82
2023/09/04 06:13:55;;;;;;;4.55;4.15;;;;;;;16.90;80.92;96552.16;4934307;28;20291;-82
2023/09/04 06:16:21;;;;;;;6.75;4.75;;;;;;;16.85;80.96;96551.81;4936434;28;20285;-85
2023/09/04 06:18:47;;;;;;;5.13;4.63;;;;;;;16.95;80.76;96553.28;4947094;28;20287;-86
2023/09/04 06:21:12;;;;;;;6.57;4.63;;;;;;;17.03;80.31;96555.09;4935047;28;20310;-85
2023/09/04 06:23:38;;;;;;;5.45;4.95;;;;;;;17.24;78.95;96557.25;4935488;28;20189;-83
2023/09/04 06:26:03;;;;;;;5.65;4.40;;;;;;;17.22;79.40;96554.78;4933725;28;20200;-83
2023/09/04 06:28:28;;;;;;;5.10;4.60;;;;;;;17.37;79.35;96554.13;4968495;28;20223;-84
2023/09/04 06:30:55;;;;;;;5.00;4.55;;;;;;;17.35;79.15;96559.53;4986296;28;20195;-83
2023/09/04 06:33:22;;;;;;;4.55;4.18;;;;;;;17.42;78.42;96554.47;4991170;28;20187;-83
2023/09/04 06:35:48;;;;;;;5.00;4.50;;;;;;;17.52;78.58;96555.91;4983934;28;20179;-83
2023/09/04 06:38:14;;;;;;;5.55;5.05;;;;;;;17.50;77.89;96557.09;4987727;28;20218;-82
2023/09/04 06:40:40;;;;;;;4.90;4.50;;;;;;;17.47;77.95;96552.13;4991369;28;20285;-83
2023/09/04 06:43:05;;;;;;;5.53;4.88;;;;;;;17.61;78.23;96553.28;4986694;28;20662;-83
2023/09/04 06:45:30;;;;;;;5.15;4.75;;;;;;;17.62;77.75;96544.41;4983915;28;20232;-85
2023/09/04 06:47:56;;;;;;;5.43;4.93;;;;;;;17.64;78.36;96545.06;4990211;28;20561;-84
2023/09/04 06:50:21;;;;;;;5.93;5.35;;;;;;;17.71;77.53;96548.69;4992239;28;20216;-84
2023/09/04 06:52:46;;;;;;;5.57;5.07;;;;;;;17.74;77.34;96546.53;4971328;28;20800;-84
2023/09/04 06:55:12;;;;;;;7.57;4.57;;;;;;;17.82;76.91;96545.72;4988581;28;20235;-84
2023/09/04 06:57:37;;;;;;;6.00;5.15;;;;;;;17.72;76.31;96545.06;4990278;28;20210;-84
2023/09/04 07:00:08;;;;;;;5.43;4.80;;;;;;;17.81;76.37;96544.88;4984052;28;20227;-84
2023/09/04 07:02:33;;;;;;;4.85;4.45;;;;;;;17.81;76.48;96542.25;4990393;28;20729;-84
2023/09/04 07:04:58;;;;;;;6.03;5.43;;;;;;;17.89;76.31;96540.59;5002831;28;20222;-83
2023/09/04 07:07:24;;;;;;;5.53;5.03;;;;;;;17.95;76.76;96548.63;4985615;28;20196;-84
2023/09/04 07:09:49;;;;;;;5.28;4.78;;;;;;;18.07;76.09;96549.91;4982286;28;20222;-83
2023/09/04 07:12:14;;;;;;;6.07;5.50;;;;;;;18.16;75.92;96552.50;4988681;28;20187;-84
2023/09/04 07:14:40;;;;;;;4.90;4.50;;;;;;;18.31;76.34;96548.19;4992827;28;20198;-86
2023/09/04 07:17:05;;;;;;;5.60;4.93;;;;;;;18.46;75.23;96545.63;4991408;28;20215;-81
2023/09/04 07:19:30;;;;;;;5.75;5.22;;;;;;;18.36;75.29;96549.28;4973714;28;20200;-81
2023/09/04 07:21:55;;;;;;;7.97;5.53;;;;;;;18.33;74.29;96549.63;4977873;28;20188;-81
2023/09/04 07:24:21;;;;;;;5.85;5.35;;;;;;;18.42;73.49;96549.59;4984808;28;21083;-81
2023/09/04 07:26:46;;;;;;;4.90;4.50;;;;;;;18.55;74.10;96547.22;4976154;28;20266;-81
2023/09/04 07:29:12;;;;;;;5.95;5.43;;;;;;;18.43;73.70;96543.34;4990560;28;20203;-84
2023/09/04 07:31:37;;;;;;;5.18;4.68;;;;;;;18.66;73.27;96537.19;4982039;28;20829;-77
2023/09/04 07:34:02;;;;;;;5.70;4.97;;;;;;;18.83;73.34;96540.53;5001706;28;20745;-78
2023/09/04 07:36:28;;;;;;;5.68;5.18;;;;;;;18.98;73.09;96545.84;4987701;28;20214;-78
2023/09/04 07:38:53;;;;;;;7.50;4.97;;;;;;;19.06;72.25;96539.69;4961990;28;20227;-78
2023/09/04 07:41:18;;;;;;;5.22;4.72;;;;;;;19.02;71.40;96541.88;4984633;28;20188;-77
2023/09/04 07:43:44;;;;;;;4.72;4.10;;;;;;;19.22;71.90;96542.19;4976836;28;20728;-81
2023/09/04 07:46:09;;;;;;;4.78;4.38;;;;;;;19.38;71.01;96536.81;4968550;28;20223;-80
2023/09/04 07:48:34;;;;;;;5.78;5.22;;;;;;;19.37;70.66;96536.97;4980380;28;20188;-80
2023/09/04 07:51:01;;;;;;;6.28;5.10;;;;;;;19.61;70.28;96546.50;4984267;28;20192;-80
2023/09/04 07:53:26;;;;;;;6.18;4.80;;;;;;;19.69;70.51;96541.97;4971149;28;20230;-81
2023/09/04 07:55:52;;;;;;;5.85;4.43;;;;;;;19.64;70.01;96544.34;4988310;28;20676;-79
2023/09/04 07:58:18;;;;;;;8.23;4.93;;;;;;;19.79;70.31;96547.00;4977811;28;20214;-79
2023/09/04 08:00:48;;;;;;;6.63;4.75;;;;;;;19.71;69.72;96547.88;4974317;28;20216;-80
2023/09/04 08:03:13;;;;;;;5.95;4.85;;;;;;;19.75;69.13;96549.16;4988291;28;20218;-81
2023/09/04 08:05:39;;;;;;;5.45;4.80;;;;;;;19.92;69.28;96547.16;4984651;28;20191;-81
2023/09/04 08:08:09;;;;;;;5.65;4.60;;;;;;;19.85;68.72;96548.88;4984356;28;20492;-82
2023/09/04 08:10:42;;;;;;;4.68;4.28;;;;;;;19.90;68.35;96549.16;4989397;28;20246;-80
2023/09/04 08:13:12;;;;;;;4.60;4.20;;;;;;;20.03;68.22;96553.78;4987357;28;20272;-82
2023/09/04 08:15:38;;;;;;;4.30;3.95;;;;;;;20.14;67.77;96553.34;4985327;28;20258;-80
2023/09/04 08:18:05;;;;;;;5.22;4.72;;;;;;;20.30;67.46;96545.22;4982075;28;20216;-81
2023/09/04 08:20:30;;;;;;;5.07;4.57;;;;;;;20.41;67.22;96546.59;4978241;28;20603;-80
2023/09/04 08:22:55;;;;;;;6.05;4.68;;;;;;;20.55;66.18;96548.41;4986912;28;20198;-82
2023/09/04 08:25:20;;;;;;;5.07;4.30;;;;;;;20.80;67.19;96545.44;4988086;28;20199;-81
2023/09/04 08:27:46;;;;;;;5.35;4.18;;;;;;;20.72;64.88;96548.19;4989506;28;20231;-83
2023/09/04 08:30:11;;;;;;;4.90;4.50;;;;;;;20.56;64.79;96543.94;4988413;28;20243;-82
2023/09/04 08:32:37;;;;;;;6.45;4.20;;;;;;;20.94;64.89;96549.88;4974328;28;20176;-81
2023/09/04 08:35:03;;;;;;;5.10;4.50;;;;;;;21.00;63.69;96550.91;4981970;28;20193;-81
2023/09/04 08:37:28;;;;;;;5.22;4.72;;;;;;;21.05;63.17;96544.06;4993965;28;20216;-82
2023/09/04 08:39:53;;;;;;;5.03;4.60;;;;;;;21.20;63.30;96546.63;4989589;28;20231;-82
2023/09/04 08:42:19;;;;;;;6.97;4.55;;;;;;;20.95;62.91;96543.56;4985466;28;20188;-82
2023/09/04 08:44:47;;;;;;;5.18;4.68;;;;;;;21.07;62.19;96547.34;4986885;28;20180;-80
2023/09/04 08:47:15;;;;;;;6.15;4.53;;;;;;;21.18;62.06;96544.19;4976274;28;20184;-82
2023/09/04 08:49:41;;;;;;;4.80;4.10;;;;;;;21.22;61.94;96542.00;4973983;28;20208;-82
2023/09/04 08:52:07;;;;;;;5.40;4.75;;;;;;;21.29;61.31;96542.06;4970767;28;20199;-82
2023/09/04 08:54:35;;;;;;;6.38;3.90;;;;;;;21.39;60.96;96547.88;4985969;28;20176;-79
2023/09/04 08:57:00;;;;;;;5.05;4.55;;;;;;;21.44;61.81;96538.34;4983243;28;20209;-78
2023/09/04 08:59:26;;;;;;;5.95;4.13;;;;;;;21.54;60.15;96543.28;4976968;28;20355;-78
2023/09/04 09:01:55;;;;;;;6.40;3.97;;;;;;;21.89;59.99;96540.69;4973939;28;20728;-78
2023/09/04 09:04:23;;;;;;;5.82;4.13;;;;;;;22.01;58.03;96544.44;4985221;28;20689;-78
2023/09/04 09:06:49;;;;;;;5.47;4.35;;;;;;;21.84;58.14;96541.28;4980687;28;20190;-76
2023/09/04 09:09:15;;;;;;;6.25;4.00;;;;;;;22.19;57.48;96543.94;4981537;28;20581;-78
2023/09/04 09:11:42;;;;;;;5.65;3.60;;;;;;;22.18;56.02;96544.97;4984575;28;20192;-79
2023/09/04 09:14:07;;;;;;;3.67;3.38;;;;;;;21.86;54.18;96538.44;4973978;28;20176;-85
2023/09/04 09:16:33;;;;;;;4.00;3.60;;;;;;;21.82;54.39;96535.38;4986114;28;20242;-80
2023/09/04 09:18:58;;;;;;;3.78;3.47;;;;;;;22.11;55.27;96539.63;4990842;28;20208;-80
2023/09/04 09:21:31;;;;;;;3.75;3.45;;;;;;;22.20;53.62;96549.03;4984030;28;20196;-82
2023/09/04 09:24:17;;;;;;;3.83;3.53;;;;;;;22.35;54.61;96540.94;4974265;28;20184;-82
2023/09/04 09:26:45;;;;;;;3.55;3.25;;;;;;;22.40;53.63;96543.03;4988754;28;20263;-84
2023/09/04 09:29:12;;;;;;;3.10;2.90;;;;;;;22.48;52.24;96541.03;4979613;28;20706;-84
2023/09/04 09:31:39;;;;;;;3.15;2.95;;;;;;;22.53;51.77;96537.78;4984754;28;20196;-85
2023/09/04 09:34:04;;;;;;;3.38;3.08;;;;;;;22.66;52.06;96550.25;4997527;28;20210;-85
2023/09/04 09:36:30;;;;;;;4.07;3.67;;;;;;;22.72;50.41;96542.34;4998199;28;20290;-81
2023/09/04 09:38:55;;;;;;;4.18;3.30;;;;;;;22.93;51.38;96544.03;4999248;28;20247;-81
2023/09/04 09:41:20;;;;;;;3.72;3.42;;;;;;;22.82;50.09;96547.25;4978929;28;20185;-81
2023/09/04 09:43:46;;;;;;;3.47;3.17;;;;;;;22.90;49.79;96544.44;4990336;28;20224;-84
2023/09/04 09:46:16;;;;;;;3.60;3.30;;;;;;;22.94;49.43;96542.19;4974731;28;20192;-80
2023/09/04 09:48:42;;;;;;;3.47;3.15;;;;;;;22.83;47.52;96539.09;4979666;28;20611;-80
2023/09/04 09:51:09;;;;;;;3.30;3.10;;;;;;;22.57;47.82;96534.53;4977937;28;20198;-80
2023/09/04 09:53:47;;;;;;;3.72;2.97;;;;;;;22.96;47.10;96529.56;4975822;28;20334;-83
2023/09/04 09:56:13;;;;;;;4.85;2.75;;;;;;;23.03;46.81;96525.09;4984599;28;20191;-80
2023/09/04 09:58:43;;;;;;;3.20;2.65;;;;;;;23.15;46.76;96524.31;4980267;28;20680;-85
2023/09/04 10:01:08;;;;;;;5.32;3.25;;;;;;;23.30;46.37;96525.94;4977186;28;20188;-84
2023/09/04 10:03:38;;;;;;;3.45;3.00;;;;;;;23.36;45.49;96528.59;4991786;28;20997;-85
2023/09/04 10:06:04;;;;;;;4.53;2.85;;;;;;;23.26;46.54;96522.06;4991068;28;20472;-84
2023/09/04 10:08:39;;;;;;;3.42;3.13;;;;;;;23.42;46.57;96526.97;4987305;28;20188;-84
2023/09/04 10:11:28;;;;;;;3.30;3.00;;;;;;;23.43;45.66;96529.41;4991998;28;20199;-84
2023/09/04 10:14:39;;;;;;;3.13;2.83;;;;;;;23.43;44.17;96525.94;4976795;28;20195;-88
2023/09/04 10:17:34;;;;;;;;;;;;;;;;;;;;;
2023/09/04 10:23:44;;;;;;;3.33;2.83;;;;;;;23.87;44.58;96517.38;4957944;28;20224;-86
2023/09/04 10:29:49;;;;;;;3.55;3.03;;;;;;;24.04;41.69;96508.97;4972849;28;20223;-87
2023/09/04 10:32:14;;;;;;;4.78;3.00;;;;;;;24.12;42.63;96511.38;4945653;28;20196;-85
2023/09/04 10:34:48;;;;;;;3.00;2.70;;;;;;;23.96;40.88;96513.47;4961433;28;20219;-84
2023/09/04 10:37:19;;;;;;;3.15;2.85;;;;;;;24.05;39.92;96513.25;4954102;28;20212;-85
2023/09/04 10:39:45;;;;;;;3.67;3.00;;;;;;;24.15;40.96;96500.34;4946013;28;20249;-85
2023/09/04 10:42:11;;;;;;;4.13;3.33;;;;;;;24.18;40.66;96499.91;4939909;28;20286;-85
2023/09/04 10:44:47;;;;;;;5.05;3.17;;;;;;;24.43;41.83;96508.03;4955157;28;20189;-84
2023/09/04 10:47:13;;;;;;;3.97;3.00;;;;;;;24.30;41.75;96492.94;4935822;28;20192;-85
2023/09/04 10:49:38;;;;;;;3.75;3.40;;;;;;;24.24;40.75;96505.22;4939693;28;20209;-84
2023/09/04 10:52:05;;;;;;;4.07;3.05;;;;;;;24.49;41.18;96499.22;4940435;28;20184;-84
2023/09/04 10:54:30;;;;;;;6.55;2.97;;;;;;;24.76;41.18;96507.88;4986991;28;20231;-84
2023/09/04 10:57:00;;;;;;;6.72;3.10;;;;;;;24.63;39.65;96499.94;4972114;28;20235;-85
2023/09/04 10:59:27;;;;;;;6.60;3.45;;;;;;;24.78;40.71;96501.31;4973300;28;20204;-85
2023/09/04 11:01:52;;;;;;;4.72;3.58;;;;;;;24.99;39.98;96486.84;4980928;28;20180;-85
2023/09/04 11:04:32;;;;;;;3.25;2.97;;;;;;;24.83;39.62;96482.91;4986836;28;20191;-85
2023/09/04 11:07:19;;;;;;;3.28;2.83;;;;;;;24.47;38.28;96482.66;4977551;28;20191;-86
2023/09/04 11:09:44;;;;;;;3.65;3.10;;;;;;;24.57;38.66;96483.88;4980513;28;20212;-85
2023/09/04 11:12:11;;;;;;;3.33;3.13;;;;;;;24.48;38.89;96477.16;4986570;28;20195;-84
2023/09/04 11:14:44;;;;;;;4.68;3.05;;;;;;;24.65;38.47;96474.00;4967696;28;20199;-84
2023/09/04 11:17:10;;;;;;;3.22;2.92;;;;;;;24.73;38.23;96461.28;4964426;28;20776;-85
2023/09/04 11:19:35;;;;;;;3.35;3.05;;;;;;;24.65;39.51;96458.06;4966817;28;20354;-85
2023/09/04 11:22:00;;;;;;;3.15;2.83;;;;;;;24.62;39.16;96450.53;4988493;28;20559;-86
2023/09/04 11:24:26;;;;;;;3.30;3.00;;;;;;;24.88;39.24;96452.19;4972132;28;20188;-85
2023/09/04 11:26:51;;;;;;;3.20;2.90;;;;;;;25.01;38.67;96457.44;4994672;28;20176;-84
2023/09/04 11:29:17;;;;;;;3.22;2.92;;;;;;;25.12;39.24;96457.56;4978916;28;20262;-87
2023/09/04 11:31:43;;;;;;;3.20;2.90;;;;;;;25.46;39.76;96444.00;4996084;28;20188;-86
2023/09/04 11:34:08;;;;;;;4.85;3.03;;;;;;;25.35;38.86;96445.50;4986732;28;20204;-87
2023/09/04 11:36:37;;;;;;;3.97;3.17;;;;;;;25.32;39.10;96448.59;4992307;28;20540;-83
2023/09/04 11:39:08;;;;;;;3.95;3.17;;;;;;;25.37;37.60;96451.44;4966970;28;20258;-82